Airfield :
LOGIN :

Register | Disclaimer

   EN    FR    IT 

 










Legend :    VFR   Marginal VFR   IFR   Intensive IFR   Very Intensive IFR
Visi :
Ceiling :
>= 8 km
>= 3000ft
5 to 8 km
1000 to 3000 ft
1500m to 5 km
500 to 1000 ft
800 to 1500m
200 to 500 ft
< 800m
< 200 ft
Symbols :   Thunderstorms  Fog  Heavy snow  Heavy precipitations  Wind > 20 kt
SIGMETs :     Misc.  Thunderstorms  Icing  Turbulence  Mountain Waves  Volcanic Ashes







- Airport Elevation : 256 ft
- IATA code : CFR
- Download approach charts


LFRK - Caen

CURRENT METAR :
  • 200330Z AUTO 20005KT CAVOK 19/16 Q1009

EXPIRED METARs :
  • 200300Z AUTO 17006KT CAVOK 18/16 Q1009
  • 200230Z AUTO VRB03KT CAVOK 19/16 Q1009
  • 200200Z AUTO 25005KT CAVOK 19/16 Q1010
  • 200130Z AUTO 24007KT CAVOK 19/16 Q1010
  • 200100Z AUTO 22006KT CAVOK 20/16 Q1010

Expired Forecast.
Met : +33 2 31 26 68 11
No reported NOTAMs for that airfield.
1 SIGMET reported for the Brest FIR (LFRR) :
 
Embedded thunderstorms
LFRR SIGMET 1 VALID 200100/200400 LFPW
LFRR BREST FIR/UIR EMBD TS OBS AT 0100Z WI N4600 W00145 - N4515 W00145 - N4500 W00230 - N4530 W00230 - N4600 W00145 TOP FL390 MOV E 20KT NC=



MET'MAP, your aeronautical weather chart ! - Copyright ORBIFLY December 2007 - Disclaimer

ORBIFLY MET'MAP TEAM :

Programming & Development : Alexandra Zaïnal
Concept & Development : Baudouin d'Aumeries
Co-Development & Prog : Marc-Olivier Méhu
Technical & hardware support : Manuel Goepfert

Contact : metmap@orbifly.com




SOURCES & CREDITS :

   NOAA